Eldora, Pennsylvania
Current Conditions -  °F | °C
As of 3:15 PM on Monday 24 Nov 2014 (Local Time) from KMQS Reporting Station
Few Clouds Few Clouds  
Wind Chill: 66°   Ceiling: Unl
Heat Index: 66°   Visibility: 10mi
Dew Point: 55°   Wind: 10mph
Humidity: 68%   Direction: 200°SSW
Pressure: 29.62"   Gusts: 22mph
Location:  39.7675°N, 76.1818°W
Report Text: KMQS 242015Z AUTO 20009G19KT 170V240 10SM FEW024 19/13 A2962 RMK AO2
Loading
Personal Weather Stations






























Interactive Weather Map New forecast layout! Learn more

10-Day Weather Forecast

Advertisements
Track Severe Weather on mobile